Time;durP1;ratioP1;P1;durP2;ratioP2;P2;SDS_P1;SDS_P2;PMS_P1;PMS_P2;Temp;Humidity;BMP_temperature;BMP_pressure;BME280_temperature;BME280_humidity;BME280_pressure;Samples;Min_cycle;Max_cycle;Signal;HPM_P1;HPM_P2
2023/08/06 00:01:48;;;;;;;7.03;3.00;;;15.90;99.90;;;;;;5095367;28;20561;-71
2023/08/06 00:04:14;;;;;;;4.10;2.80;;;15.90;99.90;;;;;;5092196;28;20251;-71
2023/08/06 00:06:39;;;;;;;4.07;3.33;;;15.80;99.90;;;;;;5110527;28;20177;-71
2023/08/06 00:09:04;;;;;;;3.33;2.97;;;15.80;99.90;;;;;;5113628;28;20192;-71
2023/08/06 00:11:30;;;;;;;3.80;3.50;;;15.70;99.90;;;;;;5113742;28;20216;-71
2023/08/06 00:13:55;;;;;;;3.30;3.00;;;15.60;99.90;;;;;;5113683;28;20177;-71
2023/08/06 00:16:21;;;;;;;5.30;3.37;;;15.60;99.90;;;;;;5113258;28;20161;-71
2023/08/06 00:18:47;;;;;;;3.30;2.97;;;15.50;99.90;;;;;;5106465;28;20535;-71
2023/08/06 00:21:12;;;;;;;3.93;3.07;;;15.50;99.90;;;;;;5086481;28;20192;-71
2023/08/06 00:23:38;;;;;;;5.30;2.97;;;15.40;99.90;;;;;;5101879;28;20272;-71
2023/08/06 00:26:04;;;;;;;3.90;2.60;;;15.40;99.90;;;;;;5113092;28;20167;-72
2023/08/06 00:28:29;;;;;;;4.67;2.90;;;15.30;99.90;;;;;;5112711;28;20441;-71
2023/08/06 00:30:56;;;;;;;7.00;2.80;;;15.20;99.90;;;;;;5113351;28;20276;-71
2023/08/06 00:33:22;;;;;;;3.70;2.70;;;15.10;99.90;;;;;;5101710;28;20182;-71
2023/08/06 00:35:48;;;;;;;5.73;2.97;;;14.90;99.90;;;;;;5103078;28;20768;-71
2023/08/06 00:38:13;;;;;;;3.50;3.17;;;14.90;99.90;;;;;;5113117;28;20410;-71
2023/08/06 00:40:39;;;;;;;4.10;2.67;;;14.90;99.90;;;;;;5112975;28;20199;-71
2023/08/06 00:43:04;;;;;;;4.40;2.60;;;14.90;99.90;;;;;;5113288;28;20192;-71
2023/08/06 00:45:33;;;;;;;4.50;2.93;;;14.90;99.90;;;;;;5112835;28;20653;-71
2023/08/06 00:47:59;;;;;;;3.83;2.57;;;14.90;99.90;;;;;;5097169;28;20178;-71
2023/08/06 00:50:25;;;;;;;3.90;3.23;;;14.80;99.90;;;;;;5106922;28;20452;-71
2023/08/06 00:52:51;;;;;;;8.17;3.20;;;14.80;99.90;;;;;;5076298;28;20503;-71
2023/08/06 00:55:17;;;;;;;2.67;2.30;;;14.80;99.90;;;;;;5112900;28;20256;-71
2023/08/06 00:57:43;;;;;;;6.10;3.20;;;14.80;99.90;;;;;;5112845;28;20501;-71
2023/08/06 01:00:09;;;;;;;3.47;3.00;;;14.80;99.90;;;;;;5094638;28;20426;-71
2023/08/06 01:02:34;;;;;;;4.67;2.90;;;14.80;99.90;;;;;;5094860;28;20211;-71
2023/08/06 01:05:00;;;;;;;3.60;2.80;;;14.80;99.90;;;;;;5104277;28;20434;-71
2023/08/06 01:07:48;;;;;;;3.13;2.57;;;14.90;99.90;;;;;;5096337;28;20246;-71
2023/08/06 01:10:16;;;;;;;4.03;3.13;;;15.00;99.90;;;;;;5086430;28;20221;-71
2023/08/06 01:12:52;;;;;;;4.90;3.17;;;15.10;99.90;;;;;;5110085;28;20402;-71
2023/08/06 01:15:27;;;;;;;2.83;2.47;;;15.20;99.90;;;;;;5094141;28;20414;-71
2023/08/06 01:17:53;;;;;;;3.80;2.20;;;15.20;99.90;;;;;;5086960;28;21003;-71
2023/08/06 01:20:19;;;;;;;4.00;2.03;;;15.20;99.90;;;;;;5091999;28;20443;-71
2023/08/06 01:22:44;;;;;;;4.10;2.60;;;15.20;99.90;;;;;;5077399;28;20622;-71
2023/08/06 01:25:11;;;;;;;5.00;3.20;;;15.20;99.90;;;;;;5093889;28;20172;-71
2023/08/06 01:27:45;;;;;;;3.63;3.30;;;15.30;99.90;;;;;;5112697;28;20172;-71
2023/08/06 01:30:17;;;;;;;3.10;2.80;;;15.20;99.90;;;;;;5112513;28;20931;-71
2023/08/06 01:32:48;;;;;;;3.07;2.70;;;15.30;99.90;;;;;;5112321;28;20409;-71
2023/08/06 01:35:16;;;;;;;3.77;2.50;;;15.30;99.90;;;;;;5091380;28;20515;-71
2023/08/06 01:37:42;;;;;;;3.00;2.57;;;15.30;99.90;;;;;;5083017;28;20518;-71
2023/08/06 01:40:12;;;;;;;3.60;3.20;;;15.30;99.90;;;;;;5077472;28;21003;-70
2023/08/06 01:42:38;;;;;;;3.33;2.77;;;15.30;99.90;;;;;;5096229;28;20403;-71
2023/08/06 01:45:04;;;;;;;2.90;2.60;;;15.30;99.90;;;;;;5095926;28;20412;-72
2023/08/06 01:47:30;;;;;;;7.80;2.60;;;15.40;99.90;;;;;;5095990;28;20400;-71
2023/08/06 01:49:56;;;;;;;3.17;2.87;;;15.30;99.90;;;;;;5076809;28;20449;-71
2023/08/06 01:52:21;;;;;;;2.00;1.80;;;15.30;99.90;;;;;;5095383;28;20545;-72
2023/08/06 01:54:47;;;;;;;3.77;2.60;;;15.30;99.90;;;;;;5114488;28;20716;-70
2023/08/06 01:57:12;;;;;;;4.80;1.97;;;15.30;99.90;;;;;;5115864;28;20240;-70
2023/08/06 01:59:37;;;;;;;2.53;2.33;;;15.30;99.90;;;;;;5116114;28;20169;-70
2023/08/06 02:02:03;;;;;;;4.13;2.83;;;15.30;99.90;;;;;;5095349;28;20174;-70
2023/08/06 02:04:29;;;;;;;2.80;2.30;;;15.20;99.90;;;;;;5094861;28;20652;-71
2023/08/06 02:06:54;;;;;;;3.77;2.30;;;15.20;99.90;;;;;;5093648;28;20650;-71
2023/08/06 02:09:20;;;;;;;2.70;2.07;;;15.20;99.90;;;;;;5101975;28;20169;-71
2023/08/06 02:11:45;;;;;;;2.23;1.90;;;15.20;99.90;;;;;;5116106;28;20185;-71
2023/08/06 02:14:11;;;;;;;3.33;1.93;;;15.10;99.90;;;;;;5115756;28;20201;-71
2023/08/06 02:16:38;;;;;;;2.50;2.30;;;15.10;99.90;;;;;;5115606;28;20283;-70
2023/08/06 02:19:03;;;;;;;2.93;2.03;;;15.10;99.90;;;;;;5115855;28;20975;-70
2023/08/06 02:21:29;;;;;;;2.83;2.20;;;15.10;99.90;;;;;;5115843;28;20226;-71
2023/08/06 02:23:55;;;;;;;3.53;2.20;;;15.10;99.90;;;;;;5107214;28;20252;-71
2023/08/06 02:26:21;;;;;;;2.90;2.20;;;15.10;99.90;;;;;;5101401;28;20636;-71
2023/08/06 02:28:46;;;;;;;3.40;2.07;;;15.10;99.90;;;;;;5115607;28;20407;-71
2023/08/06 02:31:11;;;;;;;2.40;1.73;;;15.10;99.90;;;;;;5115463;28;20203;-71
2023/08/06 02:33:37;;;;;;;1.70;1.60;;;15.10;99.90;;;;;;5103043;28;20274;-71
2023/08/06 02:36:04;;;;;;;3.60;1.87;;;15.10;99.90;;;;;;5089102;28;20226;-71
2023/08/06 02:38:31;;;;;;;3.20;2.90;;;15.20;99.90;;;;;;5115438;28;20243;-71
2023/08/06 02:40:56;;;;;;;9.13;5.60;;;15.20;99.90;;;;;;5092427;28;20454;-71
2023/08/06 02:43:22;;;;;;;6.90;5.10;;;15.30;99.90;;;;;;5094628;28;20407;-71
2023/08/06 02:45:47;;;;;;;5.70;4.70;;;15.30;99.90;;;;;;5076430;28;20170;-71
2023/08/06 02:48:13;;;;;;;4.33;3.13;;;15.40;99.90;;;;;;5095060;28;20193;-71
2023/08/06 02:50:40;;;;;;;2.93;2.53;;;15.40;99.90;;;;;;5093957;28;20200;-71
2023/08/06 02:53:06;;;;;;;10.40;2.47;;;15.40;99.90;;;;;;5076462;28;20544;-71
2023/08/06 02:55:32;;;;;;;3.40;2.43;;;15.40;99.90;;;;;;5094230;28;20407;-71
2023/08/06 02:57:57;;;;;;;4.37;2.67;;;15.50;99.90;;;;;;5093394;28;20449;-71
2023/08/06 03:00:23;;;;;;;2.57;2.37;;;15.40;99.90;;;;;;5109774;28;20223;-71
2023/08/06 03:02:48;;;;;;;2.50;2.30;;;15.40;99.90;;;;;;5114920;28;20173;-71
2023/08/06 03:05:14;;;;;;;2.67;2.17;;;15.40;99.90;;;;;;5114568;28;20172;-71
2023/08/06 03:07:39;;;;;;;2.30;2.00;;;15.40;99.90;;;;;;5114784;28;20586;-71
2023/08/06 03:10:05;;;;;;;6.53;1.87;;;15.40;99.90;;;;;;5114636;28;20191;-71
2023/08/06 03:12:31;;;;;;;2.57;1.73;;;15.40;99.90;;;;;;5096653;28;20168;-71
2023/08/06 03:14:56;;;;;;;4.73;2.60;;;15.40;99.90;;;;;;5083282;28;20459;-71
2023/08/06 03:17:22;;;;;;;2.40;2.00;;;15.40;99.90;;;;;;5094003;28;20512;-71
2023/08/06 03:19:47;;;;;;;2.40;1.80;;;15.40;99.90;;;;;;5094265;28;20185;-71
2023/08/06 03:22:13;;;;;;;3.60;2.17;;;15.40;99.90;;;;;;5094086;28;20204;-72
2023/08/06 03:24:38;;;;;;;2.53;2.07;;;15.40;99.90;;;;;;5093712;28;20725;-71
2023/08/06 03:27:04;;;;;;;4.47;2.60;;;15.50;99.90;;;;;;5094038;28;20632;-71
2023/08/06 03:29:30;;;;;;;4.80;1.70;;;15.40;99.90;;;;;;5092142;28;20170;-72
2023/08/06 03:31:55;;;;;;;1.83;1.63;;;15.40;99.90;;;;;;5085689;28;20240;-71
2023/08/06 03:34:21;;;;;;;2.90;2.20;;;15.50;99.90;;;;;;5091357;28;20603;-71
2023/08/06 03:36:46;;;;;;;2.90;1.87;;;15.50;99.90;;;;;;5112144;28;20252;-71
2023/08/06 03:39:13;;;;;;;2.83;2.37;;;15.50;99.90;;;;;;5114164;28;20184;-71
2023/08/06 03:41:39;;;;;;;2.07;1.70;;;15.60;99.90;;;;;;5114379;28;20184;-71
2023/08/06 03:44:05;;;;;;;4.03;2.87;;;15.60;99.90;;;;;;5114229;28;20402;-71
2023/08/06 03:46:33;;;;;;;4.40;2.13;;;15.70;99.90;;;;;;5109213;28;20173;-71
2023/08/06 03:49:00;;;;;;;2.60;2.07;;;15.70;99.90;;;;;;5084224;28;20663;-72
2023/08/06 03:51:25;;;;;;;2.30;2.10;;;15.70;99.90;;;;;;5085174;28;20497;-71
2023/08/06 03:53:51;;;;;;;3.87;2.37;;;15.70;99.90;;;;;;5094830;28;20451;-71
2023/08/06 03:56:16;;;;;;;2.53;2.17;;;15.80;99.90;;;;;;5113644;28;20241;-71
2023/08/06 03:58:42;;;;;;;3.87;2.57;;;15.80;99.90;;;;;;5107224;28;20189;-71
2023/08/06 04:01:08;;;;;;;10.40;5.87;;;15.80;99.90;;;;;;5098188;28;20184;-71
2023/08/06 04:03:33;;;;;;;5.80;3.30;;;15.90;99.90;;;;;;5112826;28;20208;-72
2023/08/06 04:06:00;;;;;;;3.03;2.37;;;15.90;99.90;;;;;;5113488;28;20169;-72
2023/08/06 04:08:26;;;;;;;4.87;2.27;;;15.90;99.90;;;;;;5113472;28;20268;-71
2023/08/06 04:10:52;;;;;;;4.90;2.10;;;15.90;99.90;;;;;;5113470;28;20526;-72
2023/08/06 04:13:18;;;;;;;3.63;2.57;;;15.90;99.90;;;;;;5081641;28;20856;-71
2023/08/06 04:15:44;;;;;;;3.00;2.30;;;15.90;99.90;;;;;;5079977;28;20461;-69
2023/08/06 04:18:10;;;;;;;4.23;3.37;;;15.90;99.90;;;;;;5113380;28;20395;-69
2023/08/06 04:20:43;;;;;;;2.43;1.67;;;15.90;99.90;;;;;;5095040;28;20188;-69
2023/08/06 04:23:08;;;;;;;6.00;2.17;;;15.90;99.90;;;;;;5113261;28;20215;-69
2023/08/06 04:25:34;;;;;;;5.30;2.57;;;15.90;99.90;;;;;;5113123;28;20755;-69
2023/08/06 04:27:59;;;;;;;3.33;2.67;;;16.00;99.90;;;;;;5113381;28;20167;-70
2023/08/06 04:30:25;;;;;;;2.70;2.23;;;16.10;99.90;;;;;;5091347;28;20194;-69
2023/08/06 04:32:51;;;;;;;2.43;2.23;;;16.10;99.90;;;;;;5101073;28;20200;-69
2023/08/06 04:35:16;;;;;;;2.87;2.40;;;16.10;99.90;;;;;;5092364;28;20676;-69
2023/08/06 04:37:42;;;;;;;2.67;2.00;;;16.20;99.90;;;;;;5092542;28;20219;-69
2023/08/06 04:40:08;;;;;;;4.17;2.60;;;16.30;99.90;;;;;;5092495;28;20256;-69
2023/08/06 04:42:34;;;;;;;2.57;1.90;;;16.30;99.90;;;;;;5092457;28;20189;-68
2023/08/06 04:45:01;;;;;;;3.90;2.53;;;16.40;99.90;;;;;;5092390;28;20445;-68
2023/08/06 04:47:27;;;;;;;2.30;2.10;;;16.50;99.90;;;;;;5089427;28;20178;-69
2023/08/06 04:49:53;;;;;;;2.27;2.07;;;16.50;99.90;;;;;;5092378;28;20482;-69
2023/08/06 04:52:18;;;;;;;3.73;2.70;;;16.60;99.90;;;;;;5092397;28;20162;-69
2023/08/06 04:54:44;;;;;;;4.90;3.13;;;16.70;99.90;;;;;;5092236;28;20193;-69
2023/08/06 04:57:09;;;;;;;3.23;2.47;;;16.70;99.90;;;;;;5074097;28;20188;-69
2023/08/06 04:59:35;;;;;;;3.10;2.83;;;16.80;99.90;;;;;;5092211;28;20170;-69
2023/08/06 05:02:01;;;;;;;3.43;3.10;;;16.80;99.90;;;;;;5088531;28;20219;-70
2023/08/06 05:04:27;;;;;;;4.80;3.20;;;16.80;99.90;;;;;;5099800;28;20914;-69
2023/08/06 05:06:53;;;;;;;2.70;2.50;;;16.80;99.90;;;;;;5090678;28;20200;-69
2023/08/06 05:09:19;;;;;;;4.93;2.50;;;16.90;99.90;;;;;;5094223;28;20792;-69
2023/08/06 05:11:46;;;;;;;3.70;3.10;;;16.90;99.90;;;;;;5090114;28;20192;-69
2023/08/06 05:14:12;;;;;;;22.60;13.83;;;16.90;99.90;;;;;;5087962;28;20455;-69
2023/08/06 05:16:37;;;;;;;8.37;6.40;;;16.90;99.90;;;;;;5091406;28;21101;-69
2023/08/06 05:19:03;;;;;;;5.93;3.70;;;16.90;99.90;;;;;;5088667;28;20292;-69
2023/08/06 05:21:28;;;;;;;4.90;3.33;;;17.00;99.90;;;;;;5091399;28;20193;-69
2023/08/06 05:23:54;;;;;;;5.23;4.73;;;17.00;99.90;;;;;;5091833;28;20577;-69
2023/08/06 05:26:20;;;;;;;5.10;3.93;;;16.90;99.90;;;;;;5072675;28;20193;-68
2023/08/06 05:28:45;;;;;;;14.33;11.30;;;16.90;99.90;;;;;;5089711;28;20227;-69
2023/08/06 05:31:11;;;;;;;32.00;18.83;;;17.00;99.90;;;;;;5073177;28;20221;-69
2023/08/06 05:33:37;;;;;;;12.27;8.00;;;17.00;99.90;;;;;;5091662;28;20193;-69
2023/08/06 05:36:03;;;;;;;6.87;5.30;;;17.10;99.90;;;;;;5091778;28;20170;-69
2023/08/06 05:38:29;;;;;;;4.23;3.50;;;17.20;99.90;;;;;;5099270;28;20227;-69
2023/08/06 05:40:56;;;;;;;4.20;3.40;;;17.30;99.90;;;;;;5088150;28;20471;-69
2023/08/06 05:43:21;;;;;;;3.37;2.80;;;17.40;99.90;;;;;;5100811;28;20486;-68
2023/08/06 05:45:49;;;;;;;5.87;2.53;;;17.50;99.90;;;;;;5073531;28;20827;-69
2023/08/06 05:48:15;;;;;;;4.27;2.90;;;17.60;99.90;;;;;;5061125;28;20262;-69
2023/08/06 05:50:41;;;;;;;3.20;2.90;;;17.80;99.90;;;;;;5089584;28;20852;-69
2023/08/06 05:53:07;;;;;;;4.10;2.90;;;17.80;99.90;;;;;;5094586;28;20169;-69
2023/08/06 05:55:33;;;;;;;3.40;2.80;;;17.90;99.90;;;;;;5088202;28;20935;-69
2023/08/06 05:57:59;;;;;;;3.37;2.97;;;17.90;99.90;;;;;;5085517;28;20404;-70
2023/08/06 06:00:25;;;;;;;2.80;2.50;;;17.90;99.90;;;;;;5091706;28;20463;-70
2023/08/06 06:02:50;;;;;;;2.83;2.07;;;17.90;99.90;;;;;;5091842;28;20205;-69
2023/08/06 06:05:16;;;;;;;2.93;2.60;;;17.90;99.90;;;;;;5073222;28;20173;-69
2023/08/06 06:07:41;;;;;;;2.20;1.97;;;17.90;99.90;;;;;;5091545;28;20182;-69
2023/08/06 06:10:07;;;;;;;2.70;2.30;;;17.80;99.90;;;;;;5085098;28;20226;-69
2023/08/06 06:12:33;;;;;;;3.70;2.20;;;17.80;99.90;;;;;;5069894;28;20264;-69
2023/08/06 06:15:00;;;;;;;2.53;2.33;;;17.80;99.90;;;;;;5101906;28;20469;-69
2023/08/06 06:17:26;;;;;;;3.23;2.93;;;17.80;99.90;;;;;;5064658;28;20169;-69
2023/08/06 06:19:52;;;;;;;3.70;2.40;;;17.70;99.90;;;;;;5071942;28;20424;-69
2023/08/06 06:22:17;;;;;;;2.17;1.97;;;17.60;99.90;;;;;;5073089;28;20473;-69
2023/08/06 06:24:43;;;;;;;2.93;2.60;;;17.50;99.90;;;;;;5090961;28;20193;-69
2023/08/06 06:27:08;;;;;;;3.77;3.20;;;17.50;99.90;;;;;;5092501;28;20208;-69
2023/08/06 06:29:34;;;;;;;3.43;1.70;;;17.40;99.90;;;;;;5075694;28;20173;-69
2023/08/06 06:31:59;;;;;;;2.80;1.90;;;17.40;99.90;;;;;;5076474;28;20165;-69
2023/08/06 06:34:25;;;;;;;1.97;1.80;;;17.40;99.90;;;;;;5094407;28;20284;-69
2023/08/06 06:36:50;;;;;;;1.63;1.50;;;17.40;99.90;;;;;;5094354;28;20161;-69
2023/08/06 06:39:17;;;;;;;1.93;1.73;;;17.40;99.90;;;;;;5094445;28;20157;-69
2023/08/06 06:41:44;;;;;;;2.93;1.70;;;17.40;99.90;;;;;;5090226;28;20273;-69
2023/08/06 06:44:10;;;;;;;1.40;1.23;;;17.40;99.90;;;;;;5093548;28;20427;-68
2023/08/06 06:46:35;;;;;;;1.30;1.20;;;17.40;99.90;;;;;;5093918;28;20400;-69
2023/08/06 06:49:01;;;;;;;1.10;1.00;;;17.50;99.90;;;;;;5074810;28;20963;-69
2023/08/06 06:51:26;;;;;;;1.13;1.03;;;17.50;99.90;;;;;;5085280;28;20197;-68
2023/08/06 06:53:52;;;;;;;1.27;1.17;;;17.60;99.90;;;;;;5094000;28;20204;-68
2023/08/06 06:56:17;;;;;;;1.13;0.90;;;17.60;99.90;;;;;;5092667;28;20511;-69
2023/08/06 06:58:43;;;;;;;1.40;1.03;;;17.70;99.90;;;;;;5093886;28;20165;-69
2023/08/06 07:01:11;;;;;;;2.43;1.07;;;17.80;99.90;;;;;;5074367;28;20221;-69
2023/08/06 07:03:37;;;;;;;1.23;1.00;;;17.80;99.90;;;;;;5093709;28;20248;-69
2023/08/06 07:06:03;;;;;;;1.33;1.10;;;17.80;99.90;;;;;;5093704;28;20511;-69
2023/08/06 07:08:29;;;;;;;2.13;1.03;;;17.90;99.90;;;;;;5075336;28;20482;-69
2023/08/06 07:11:06;;;;;;;1.57;1.00;;;17.90;99.90;;;;;;5074140;28;20960;-69
2023/08/06 07:13:34;;;;;;;2.40;1.10;;;18.10;99.90;;;;;;5090551;28;20201;-70
2023/08/06 07:16:00;;;;;;;1.00;0.90;;;18.30;99.90;;;;;;5067216;28;20408;-70
2023/08/06 07:18:26;;;;;;;1.40;0.90;;;18.50;99.90;;;;;;5093788;28;20765;-69
2023/08/06 07:20:52;;;;;;;1.30;0.93;;;18.70;99.90;;;;;;5094147;28;20665;-69
2023/08/06 07:23:22;;;;;;;1.20;1.10;;;18.90;99.90;;;;;;5093914;28;20252;-69
2023/08/06 07:25:48;;;;;;;1.20;1.00;;;19.10;99.90;;;;;;5093699;28;20400;-69
2023/08/06 07:28:15;;;;;;;1.30;1.00;;;19.30;99.90;;;;;;5073377;28;20484;-69
2023/08/06 07:30:41;;;;;;;1.23;0.93;;;19.40;99.90;;;;;;5093606;28;20190;-69
2023/08/06 07:33:07;;;;;;;2.00;1.10;;;19.60;99.90;;;;;;5093730;28;20395;-69
2023/08/06 07:35:33;;;;;;;1.23;1.13;;;19.60;99.90;;;;;;5093529;28;20406;-69
2023/08/06 07:37:58;;;;;;;1.20;1.10;;;19.80;99.90;;;;;;5093667;28;20211;-69
2023/08/06 07:40:24;;;;;;;1.20;1.10;;;20.00;99.90;;;;;;5075545;28;20514;-69
2023/08/06 07:42:50;;;;;;;1.37;1.00;;;20.20;99.90;;;;;;5093781;28;20162;-69
2023/08/06 07:45:15;;;;;;;1.07;0.93;;;20.50;99.90;;;;;;5088377;28;20204;-69
2023/08/06 07:47:42;;;;;;;0.90;0.80;;;20.70;99.90;;;;;;5093491;28;20268;-69
2023/08/06 07:50:08;;;;;;;1.30;0.90;;;21.00;99.90;;;;;;5093179;28;20181;-69
2023/08/06 07:52:34;;;;;;;1.50;0.90;;;21.10;99.90;;;;;;5075187;28;20511;-70
2023/08/06 07:55:01;;;;;;;1.00;0.83;;;21.20;99.90;;;;;;5093096;28;20534;-70
2023/08/06 07:57:26;;;;;;;0.90;0.80;;;21.30;99.90;;;;;;5075340;28;20170;-70
2023/08/06 07:59:53;;;;;;;1.10;1.00;;;21.40;99.90;;;;;;5091831;28;20422;-70
2023/08/06 08:02:19;;;;;;;1.20;0.90;;;21.40;99.90;;;;;;5087852;28;20189;-70
2023/08/06 08:04:47;;;;;;;0.90;0.80;;;21.50;99.90;;;;;;5111621;28;20422;-70
2023/08/06 08:07:12;;;;;;;1.10;0.90;;;21.60;99.90;;;;;;5094986;28;20767;-69
2023/08/06 08:09:38;;;;;;;1.43;0.90;;;21.60;99.90;;;;;;5113446;28;20409;-69
2023/08/06 08:12:04;;;;;;;1.00;0.90;;;21.60;99.90;;;;;;5113553;28;20168;-69
2023/08/06 08:14:35;;;;;;;1.47;1.00;;;21.50;99.90;;;;;;5113398;28;20191;-68
2023/08/06 08:17:01;;;;;;;0.90;0.80;;;21.40;99.90;;;;;;5102528;28;20261;-69
2023/08/06 08:19:28;;;;;;;1.30;0.80;;;21.40;99.90;;;;;;5100303;28;20415;-69
2023/08/06 08:21:54;;;;;;;0.90;0.80;;;21.40;99.90;;;;;;5113253;28;20422;-69
2023/08/06 08:24:20;;;;;;;2.40;0.90;;;21.50;99.90;;;;;;5113418;28;20742;-70
2023/08/06 08:26:45;;;;;;;2.23;0.90;;;21.60;99.90;;;;;;5113032;28;20401;-69
2023/08/06 08:29:11;;;;;;;2.10;0.80;;;21.70;99.90;;;;;;5113094;28;20157;-69
2023/08/06 08:31:39;;;;;;;1.30;1.00;;;21.80;99.90;;;;;;5113118;28;20279;-70
2023/08/06 08:34:05;;;;;;;1.50;0.90;;;22.00;99.90;;;;;;5097877;28;20271;-68
2023/08/06 08:36:31;;;;;;;42.57;2.50;;;22.20;99.90;;;;;;5088498;28;20748;-68
2023/08/06 08:38:57;;;;;;;1.43;0.90;;;22.30;99.90;;;;;;5112710;28;20409;-70
2023/08/06 08:41:23;;;;;;;2.17;0.80;;;22.40;99.90;;;;;;5112887;28;20188;-69
2023/08/06 08:43:51;;;;;;;44.23;11.83;;;22.40;99.90;;;;;;5113012;28;20226;-69
2023/08/06 08:46:18;;;;;;;272.23;31.47;;;22.50;99.90;;;;;;5112588;28;20425;-69
2023/08/06 08:48:44;;;;;;;60.20;2.17;;;22.50;99.90;;;;;;5112179;28;20398;-68
2023/08/06 08:51:11;;;;;;;61.07;2.53;;;22.60;99.90;;;;;;5080800;28;20508;-69
2023/08/06 08:53:39;;;;;;;60.23;2.10;;;22.60;99.90;;;;;;5082920;28;20447;-69
2023/08/06 08:56:05;;;;;;;58.07;2.20;;;22.40;99.90;;;;;;5094115;28;20417;-70
2023/08/06 08:58:31;;;;;;;55.97;2.00;;;22.30;99.90;;;;;;5112726;28;20893;-69
2023/08/06 09:00:57;;;;;;;55.20;1.90;;;22.10;99.90;;;;;;5112494;28;20414;-69
2023/08/06 09:03:23;;;;;;;54.97;1.90;;;22.00;99.90;;;;;;5112690;28;20390;-69
2023/08/06 09:05:54;;;;;;;55.30;2.30;;;21.90;99.90;;;;;;5094124;28;20441;-70
2023/08/06 09:08:26;;;;;;;56.27;2.20;;;21.70;99.90;;;;;;5091706;28;20940;-69
2023/08/06 09:10:52;;;;;;;55.33;2.70;;;21.50;99.90;;;;;;5111405;28;20505;-69
2023/08/06 09:13:19;;;;;;;55.77;2.73;;;21.40;99.90;;;;;;5112476;28;21022;-69
2023/08/06 09:15:44;;;;;;;54.07;2.50;;;21.20;99.90;;;;;;5112200;28;20164;-69
2023/08/06 09:18:11;;;;;;;56.17;2.50;;;21.00;99.90;;;;;;5112535;28;20402;-69
2023/08/06 09:20:40;;;;;;;54.00;2.67;;;20.80;99.90;;;;;;5112262;28;20208;-69
2023/08/06 09:23:10;;;;;;;54.47;2.70;;;20.70;99.90;;;;;;5094060;28;20502;-69
2023/08/06 09:25:41;;;;;;;57.07;4.03;;;20.50;99.90;;;;;;5088624;28;20419;-69
2023/08/06 09:28:07;;;;;;;56.47;3.23;;;20.40;99.90;;;;;;5105012;28;20499;-69
2023/08/06 09:30:35;;;;;;;59.00;4.10;;;20.40;99.90;;;;;;5112250;28;20450;-69
2023/08/06 09:33:01;;;;;;;57.87;4.07;;;20.50;99.90;;;;;;5112353;28;20161;-69
2023/08/06 09:35:31;;;;;;;60.10;3.97;;;20.50;99.90;;;;;;5111978;28;20454;-69
2023/08/06 09:38:10;;;;;;;56.80;3.10;;;20.50;99.90;;;;;;5112266;28;20168;-68
2023/08/06 09:40:36;;;;;;;57.37;3.30;;;20.30;99.90;;;;;;5101687;28;20940;-68
2023/08/06 09:43:02;;;;;;;52.13;2.87;;;20.20;99.90;;;;;;5084170;28;20431;-68
2023/08/06 09:45:34;;;;;;;53.40;2.73;;;20.10;99.90;;;;;;5107580;28;20417;-69
2023/08/06 09:48:02;;;;;;;53.27;3.07;;;20.00;99.90;;;;;;5112330;28;20409;-69
2023/08/06 09:50:31;;;;;;;53.77;2.40;;;19.70;99.90;;;;;;5093887;28;20942;-68
2023/08/06 09:52:57;;;;;;;571.43;147.53;;;19.50;99.90;;;;;;5094036;28;20413;-69
2023/08/06 09:55:24;;;;;;;1.00;0.70;;;19.40;99.90;;;;;;5107027;28;20466;-69
2023/08/06 09:57:51;;;;;;;158.30;43.97;;;19.30;99.90;;;;;;5093715;28;20488;-68
2023/08/06 10:00:17;;;;;;;0.90;0.70;;;19.30;99.90;;;;;;5114087;28;20410;-70
2023/08/06 10:02:43;;;;;;;0.90;0.70;;;19.20;99.90;;;;;;5116372;28;20391;-69
2023/08/06 10:05:09;;;;;;;1.63;0.60;;;19.10;99.90;;;;;;5115872;28;20630;-69
2023/08/06 10:07:35;;;;;;;1.13;0.97;;;19.20;99.90;;;;;;5115840;28;20415;-69
2023/08/06 10:10:02;;;;;;;1.40;0.70;;;19.40;99.90;;;;;;5107717;28;20199;-68
2023/08/06 10:12:38;;;;;;;1.00;0.60;;;19.60;99.90;;;;;;5092477;28;20862;-70
2023/08/06 10:15:09;;;;;;;2.00;0.80;;;19.80;99.90;;;;;;5087352;28;20905;-70
2023/08/06 10:17:36;;;;;;;8.70;1.03;;;19.90;99.90;;;;;;5077363;28;20403;-69
2023/08/06 10:20:07;;;;;;;18.87;1.80;;;19.90;99.90;;;;;;5095141;28;20625;-69
2023/08/06 10:22:34;;;;;;;20.23;1.60;;;19.80;99.90;;;;;;5095243;28;20403;-70
2023/08/06 10:25:04;;;;;;;17.80;1.00;;;19.70;99.90;;;;;;5075701;28;20462;-68
2023/08/06 10:27:32;;;;;;;21.97;1.70;;;19.70;99.90;;;;;;5111682;28;20456;-68
2023/08/06 10:30:31;;;;;;;19.10;1.20;;;19.50;99.90;;;;;;5097003;28;20427;-69
2023/08/06 10:33:04;;;;;;;20.00;1.50;;;19.40;99.90;;;;;;5115437;28;20398;-69
2023/08/06 10:35:48;;;;;;;20.23;1.70;;;19.20;99.90;;;;;;5096830;28;20457;-69
2023/08/06 10:38:18;;;;;;;24.70;1.80;;;19.00;99.90;;;;;;5096995;28;20402;-69
2023/08/06 10:40:52;;;;;;;20.67;1.77;;;18.80;99.90;;;;;;5098768;28;20461;-69
2023/08/06 10:43:37;;;;;;;20.47;1.77;;;18.50;99.90;;;;;;5082864;28;20532;-69
2023/08/06 10:46:09;;;;;;;20.83;1.80;;;18.40;99.90;;;;;;5115156;28;20402;-69
2023/08/06 10:48:41;;;;;;;20.53;1.80;;;18.20;99.90;;;;;;5115208;28;20911;-68
2023/08/06 10:51:10;;;;;;;21.10;1.83;;;18.20;99.90;;;;;;5114993;28;20518;-69
2023/08/06 10:53:36;;;;;;;2.60;1.30;;;18.10;99.90;;;;;;5114984;28;20481;-69
2023/08/06 10:56:02;;;;;;;1.70;1.20;;;18.10;99.90;;;;;;5114719;28;20431;-68
2023/08/06 10:58:34;;;;;;;2.13;1.10;;;18.10;99.90;;;;;;5072592;28;20179;-69
2023/08/06 11:01:00;;;;;;;1.67;1.37;;;18.10;99.90;;;;;;5085817;28;20557;-69
2023/08/06 11:03:27;;;;;;;3.00;1.70;;;18.10;99.90;;;;;;5094139;28;20877;-69
2023/08/06 11:05:53;;;;;;;11.80;1.80;;;18.00;99.90;;;;;;5075881;28;20173;-68
2023/08/06 11:08:28;;;;;;;11.10;2.00;;;18.00;99.90;;;;;;5094193;28;20418;-68
2023/08/06 11:10:54;;;;;;;12.93;1.87;;;18.00;99.90;;;;;;5075763;28;20223;-68
2023/08/06 11:13:21;;;;;;;9.40;1.57;;;17.90;99.90;;;;;;5091568;28;20522;-68
2023/08/06 11:15:46;;;;;;;9.73;1.73;;;17.90;99.90;;;;;;5093912;28;20415;-69
2023/08/06 11:18:12;;;;;;;11.20;1.77;;;17.90;99.90;;;;;;5114525;28;20390;-69
2023/08/06 11:20:39;;;;;;;10.20;2.23;;;17.90;99.90;;;;;;5114821;28;20558;-69
2023/08/06 11:23:05;;;;;;;9.37;1.43;;;17.90;99.90;;;;;;5096303;28;20226;-68
2023/08/06 11:25:31;;;;;;;2.47;1.60;;;17.90;99.90;;;;;;5095978;28;20444;-68
2023/08/06 11:27:56;;;;;;;7.87;2.10;;;18.00;99.90;;;;;;5114375;28;20406;-68
2023/08/06 11:30:22;;;;;;;2.33;1.70;;;18.10;99.90;;;;;;5105126;28;20601;-69
2023/08/06 11:32:48;;;;;;;2.47;1.90;;;18.20;99.90;;;;;;5085705;28;20177;-69
2023/08/06 11:35:17;;;;;;;1.80;1.10;;;18.30;99.90;;;;;;5095564;28;20255;-69
2023/08/06 11:37:46;;;;;;;4.47;1.80;;;18.40;99.90;;;;;;5114191;28;20391;-69
2023/08/06 11:40:15;;;;;;;1.67;1.03;;;18.40;99.90;;;;;;5114044;28;20414;-68
2023/08/06 11:42:42;;;;;;;1.40;1.00;;;18.60;99.90;;;;;;5095701;28;20919;-68
2023/08/06 11:45:09;;;;;;;3.17;1.53;;;18.50;99.90;;;;;;5113753;28;20409;-68
2023/08/06 11:47:40;;;;;;;2.90;1.10;;;18.60;99.90;;;;;;5081057;28;20498;-68
2023/08/06 11:50:06;;;;;;;3.90;1.60;;;18.80;99.90;;;;;;5088003;28;20438;-69
2023/08/06 11:52:32;;;;;;;2.80;1.10;;;19.00;99.90;;;;;;5095526;28;20429;-69
2023/08/06 11:55:10;;;;;;;3.80;1.30;;;19.30;99.90;;;;;;5113611;28;20438;-69
2023/08/06 11:57:36;;;;;;;1.33;1.00;;;19.70;99.90;;;;;;5095230;28;20925;-69
2023/08/06 12:00:08;;;;;;;4.97;1.03;;;20.00;99.90;;;;;;5095468;28;20544;-68
2023/08/06 12:02:41;;;;;;;2.17;1.10;;;20.20;99.90;;;;;;5114002;28;20726;-69
2023/08/06 12:05:14;;;;;;;199.60;50.13;;;20.50;99.90;;;;;;5093639;28;20423;-68
2023/08/06 12:07:43;;;;;;;52.70;1.93;;;20.60;99.90;;;;;;5110682;28;20790;-69
2023/08/06 12:10:09;;;;;;;56.57;2.00;;;20.60;99.90;;;;;;5113500;28;20422;-68
2023/08/06 12:12:35;;;;;;;47.70;5.80;;;20.70;99.90;;;;;;5113683;28;20765;-69
2023/08/06 12:15:02;;;;;;;43.10;1.60;;;20.60;99.90;;;;;;5113054;28;20446;-69
2023/08/06 12:17:27;;;;;;;46.00;1.70;;;20.70;99.90;;;;;;5113284;28;20947;-68
2023/08/06 12:19:53;;;;;;;41.20;1.70;;;20.70;99.90;;;;;;5095050;28;20526;-68
2023/08/06 12:22:18;;;;;;;46.00;1.80;;;20.70;99.90;;;;;;5090678;28;20180;-68
2023/08/06 12:24:45;;;;;;;46.03;1.70;;;20.60;99.90;;;;;;5110327;28;20918;-68
2023/08/06 12:27:11;;;;;;;586.23;60.33;;;20.50;99.90;;;;;;5112971;28;20168;-68
2023/08/06 12:29:41;;;;;;;11.07;1.30;;;20.40;99.90;;;;;;5113088;28;20410;-68
2023/08/06 12:32:07;;;;;;;11.30;1.30;;;20.20;99.90;;;;;;5113246;28;20403;-69
2023/08/06 12:34:32;;;;;;;9.50;1.30;;;19.90;99.90;;;;;;5094779;28;20469;-68
2023/08/06 12:36:58;;;;;;;10.83;1.70;;;19.60;99.90;;;;;;5109189;28;20239;-69
2023/08/06 12:39:23;;;;;;;10.40;1.57;;;19.40;99.90;;;;;;5087611;28;20252;-68
2023/08/06 12:41:49;;;;;;;11.47;1.73;;;19.30;99.90;;;;;;5077667;28;20273;-69